PH-0044 weather

Public forecast

Using degrees Celsius for public forecast. Weather courtesy of forecast.io.

Closest aviation weather report (METAR) to TSD Communications Department Heliport

Closest report is Ninoy Aquino International Airport, 4.5 nm (8.3 km) SSW. Retrieved 2020/08/14 17:00 UTC (16 minutes ago):

RPLL 141700Z AUTO 00000KT 9999 SCT057/// SCT076/// OVC160/// 26/24 Q1009

Closest aviation forecast (TAF) to TSD Communications Department Heliport

Closest forecast is Ninoy Aquino International Airport, 4.5 nm (8.3 km) SSW. Retrieved 2020/08/14 12:00 UTC (5 hours ago):

TAF RPLL 141100Z 1412/1518 06006KT 9999 FEW022 BKN100 TX32/1506Z TN24/1421Z TEMPO 1412/1418 33008KT 7000 -TSRA FEW020CB SCT022 OVC080 TEMPO 1418/1424 VRB05KT 8000 -TSRA FEW018CB SCT022 OVC100